Time;durP1;ratioP1;P1;durP2;ratioP2;P2;SDS_P1;SDS_P2;PMS_P1;PMS_P2;Temp;Humidity;BMP_temperature;BMP_pressure;BME280_temperature;BME280_humidity;BME280_pressure;Samples;Min_cycle;Max_cycle;Signal;HPM_P1;HPM_P2
2023/01/09 00:01:37;;;;;;;48.55;21.42;;;3.10;99.90;;;;;;5054117;28;20048;-66
2023/01/09 00:04:03;;;;;;;45.33;21.15;;;3.10;99.90;;;;;;5031500;28;20052;-67
2023/01/09 00:06:28;;;;;;;43.78;21.02;;;3.00;99.90;;;;;;5054023;28;20021;-67
2023/01/09 00:08:54;;;;;;;37.53;21.00;;;3.00;99.90;;;;;;5052975;28;20032;-67
2023/01/09 00:11:20;;;;;;;41.47;20.15;;;3.00;99.90;;;;;;5053476;28;20022;-67
2023/01/09 00:13:46;;;;;;;39.40;20.67;;;3.00;99.90;;;;;;5053224;28;20473;-67
2023/01/09 00:16:12;;;;;;;35.28;21.05;;;3.00;99.90;;;;;;5053932;28;20033;-67
2023/01/09 00:18:38;;;;;;;34.97;19.92;;;2.90;99.90;;;;;;5053606;28;20051;-67
2023/01/09 00:21:06;;;;;;;30.27;18.95;;;3.00;99.90;;;;;;5053839;28;20021;-66
2023/01/09 00:23:32;;;;;;;30.70;18.48;;;2.90;99.90;;;;;;5053500;28;20451;-67
2023/01/09 00:26:04;;;;;;;35.17;20.00;;;3.00;99.90;;;;;;5053874;28;20112;-67
2023/01/09 00:28:30;;;;;;;36.80;20.55;;;3.00;99.90;;;;;;5053682;28;20416;-66
2023/01/09 00:30:58;;;;;;;33.72;20.08;;;3.00;99.90;;;;;;5052978;28;20117;-68
2023/01/09 00:33:35;;;;;;;47.03;22.33;;;3.00;99.90;;;;;;5053302;28;20033;-66
2023/01/09 00:36:01;;;;;;;34.53;20.55;;;3.00;99.90;;;;;;5053605;28;20112;-67
2023/01/09 00:38:27;;;;;;;37.03;22.13;;;3.10;99.90;;;;;;5053410;28;20443;-67
2023/01/09 00:40:54;;;;;;;40.20;22.02;;;3.10;99.90;;;;;;5052857;28;20073;-67
2023/01/09 00:43:22;;;;;;;42.28;22.30;;;3.10;99.90;;;;;;5053557;28;20378;-67
2023/01/09 00:45:48;;;;;;;35.50;21.23;;;3.10;99.90;;;;;;5052729;28;20155;-67
2023/01/09 00:48:23;;;;;;;44.78;24.00;;;3.10;99.90;;;;;;5053301;28;20052;-67
2023/01/09 00:50:50;;;;;;;42.38;23.58;;;3.10;99.90;;;;;;5055225;28;20036;-67
2023/01/09 00:53:19;;;;;;;45.67;24.75;;;3.10;99.90;;;;;;5056499;28;20036;-67
2023/01/09 00:55:45;;;;;;;44.90;23.92;;;3.10;99.90;;;;;;5054391;28;20033;-67
2023/01/09 00:58:11;;;;;;;49.00;23.45;;;3.10;99.90;;;;;;5055727;28;20040;-67
2023/01/09 01:00:36;;;;;;;41.97;24.15;;;3.00;99.90;;;;;;5054669;28;20037;-67
2023/01/09 01:03:02;;;;;;;43.38;24.67;;;3.10;99.90;;;;;;5054004;28;20033;-67
2023/01/09 01:08:17;;;;;;;34.35;20.48;;;3.10;99.90;;;;;;5053378;28;20075;-67
2023/01/09 01:10:44;;;;;;;35.70;20.92;;;3.10;99.90;;;;;;5053206;28;20105;-67
2023/01/09 01:13:10;;;;;;;38.55;21.80;;;3.10;99.90;;;;;;5052999;28;20045;-67
2023/01/09 01:15:38;;;;;;;35.72;21.55;;;3.10;99.90;;;;;;5053247;28;20061;-67
2023/01/09 01:18:04;;;;;;;39.97;22.42;;;3.00;99.90;;;;;;5053121;28;20028;-67
2023/01/09 01:20:30;;;;;;;36.90;22.15;;;3.00;99.90;;;;;;5052988;28;20105;-67
2023/01/09 01:22:56;;;;;;;39.25;21.95;;;3.00;99.90;;;;;;5052027;28;20067;-67
2023/01/09 01:25:21;;;;;;;38.25;22.42;;;3.00;99.90;;;;;;5052559;28;20397;-67
2023/01/09 01:27:47;;;;;;;34.60;20.65;;;3.00;99.90;;;;;;5052470;28;20359;-67
2023/01/09 01:30:14;;;;;;;36.35;21.33;;;3.00;99.90;;;;;;5052425;28;20377;-67
2023/01/09 01:32:40;;;;;;;33.72;20.08;;;3.10;99.90;;;;;;5052273;28;20021;-67
2023/01/09 01:35:06;;;;;;;35.47;21.45;;;3.00;99.90;;;;;;5052594;28;20381;-66
2023/01/09 01:37:33;;;;;;;36.70;21.45;;;3.00;99.90;;;;;;5052329;28;20032;-67
2023/01/09 01:39:59;;;;;;;32.72;20.77;;;3.10;99.90;;;;;;5052125;28;20488;-67
2023/01/09 01:42:25;;;;;;;33.38;20.65;;;3.00;99.90;;;;;;5052683;28;20028;-67
2023/01/09 01:45:01;;;;;;;32.85;20.15;;;3.10;99.90;;;;;;5051921;28;20029;-66
2023/01/09 01:47:35;;;;;;;31.83;20.35;;;3.10;99.90;;;;;;5052611;28;20116;-66
2023/01/09 01:50:13;;;;;;;32.33;20.48;;;3.10;99.90;;;;;;5051920;28;20096;-67
2023/01/09 01:52:41;;;;;;;26.70;18.15;;;3.10;99.90;;;;;;5052108;28;20416;-71
2023/01/09 01:55:08;;;;;;;30.33;19.08;;;3.10;99.90;;;;;;5052355;28;20068;-67
2023/01/09 01:57:36;;;;;;;31.23;19.70;;;3.10;99.90;;;;;;5052398;28;20117;-66
2023/01/09 02:00:03;;;;;;;31.08;20.17;;;3.10;99.90;;;;;;5052102;28;20033;-68
2023/01/09 02:02:31;;;;;;;32.35;20.20;;;3.20;99.90;;;;;;5052167;28;20132;-66
2023/01/09 02:04:59;;;;;;;29.40;18.85;;;3.20;99.90;;;;;;5052008;28;20100;-66
2023/01/09 02:07:24;;;;;;;30.60;19.13;;;3.20;99.90;;;;;;5052249;28;20020;-66
2023/01/09 02:09:51;;;;;;;30.55;19.65;;;3.20;99.90;;;;;;5051621;28;20541;-67
2023/01/09 02:12:23;;;;;;;29.95;18.92;;;3.20;99.90;;;;;;5051985;28;20074;-67
2023/01/09 02:15:02;;;;;;;27.25;18.45;;;3.20;99.90;;;;;;5051583;28;20545;-67
2023/01/09 02:18:00;;;;;;;28.80;18.98;;;3.20;99.90;;;;;;5051828;28;20022;-68
2023/01/09 02:20:48;;;;;;;28.90;18.65;;;3.20;99.90;;;;;;5052387;28;20462;-66
2023/01/09 02:23:35;;;;;;;29.30;19.40;;;3.20;99.90;;;;;;5052470;28;20043;-67
2023/01/09 02:26:19;;;;;;;30.05;18.60;;;3.20;99.90;;;;;;5051756;28;20234;-67
2023/01/09 02:29:13;;;;;;;25.20;17.85;;;3.20;99.90;;;;;;5051916;28;20373;-67
2023/01/09 02:31:54;;;;;;;26.83;17.80;;;3.20;99.90;;;;;;5052285;28;20363;-66
2023/01/09 02:34:29;;;;;;;33.08;18.35;;;3.20;99.90;;;;;;5052267;28;20039;-67
2023/01/09 02:37:30;;;;;;;27.48;18.05;;;3.20;99.90;;;;;;5055680;28;20469;-67
2023/01/09 02:40:06;;;;;;;28.45;17.38;;;3.20;99.90;;;;;;5032847;28;20080;-67
2023/01/09 02:42:34;;;;;;;25.13;16.90;;;3.20;99.90;;;;;;5052325;28;20029;-66
2023/01/09 02:45:00;;;;;;;26.00;17.40;;;3.20;99.90;;;;;;5055022;28;20040;-66
2023/01/09 02:47:28;;;;;;;27.75;17.83;;;3.20;99.90;;;;;;5055480;28;20068;-67
2023/01/09 02:50:01;;;;;;;29.40;17.50;;;3.20;99.90;;;;;;5055259;28;20025;-67
2023/01/09 02:52:35;;;;;;;26.27;16.23;;;3.20;99.90;;;;;;5055705;28;20436;-67
2023/01/09 02:55:38;;;;;;;25.33;17.17;;;3.20;99.90;;;;;;5055074;28;20036;-67
2023/01/09 02:58:10;;;;;;;30.45;19.25;;;3.20;99.90;;;;;;5054907;28;20028;-67
2023/01/09 03:01:11;;;;;;;;;;;3.20;99.90;;;;;;5056178;28;20025;-66
2023/01/09 03:03:49;;;;;;;26.85;18.63;;;3.20;99.90;;;;;;5073136;28;19908;-67
2023/01/09 03:06:38;;;;;;;28.00;17.83;;;3.30;99.90;;;;;;5057641;28;20520;-67
2023/01/09 03:09:26;;;;;;;27.52;17.88;;;3.30;99.90;;;;;;5055019;28;20056;-67
2023/01/09 03:11:58;;;;;;;25.98;17.88;;;3.30;99.90;;;;;;5054418;28;20032;-66
2023/01/09 03:14:25;;;;;;;27.48;18.13;;;3.30;99.90;;;;;;5055245;28;20382;-66
2023/01/09 03:16:57;;;;;;;30.00;18.42;;;3.20;99.90;;;;;;5054658;28;20378;-66
2023/01/09 03:19:28;;;;;;;26.30;18.10;;;3.30;99.90;;;;;;5055309;28;20397;-66
2023/01/09 03:21:54;;;;;;;32.30;18.52;;;3.30;99.90;;;;;;5054611;28;20032;-66
2023/01/09 03:24:20;;;;;;;30.48;19.45;;;3.30;99.90;;;;;;5055108;28;20127;-66
2023/01/09 03:26:46;;;;;;;30.90;19.08;;;3.40;99.90;;;;;;5054664;28;20426;-70
2023/01/09 03:29:12;;;;;;;29.55;17.67;;;3.40;99.90;;;;;;5055061;28;20096;-66
2023/01/09 03:31:38;;;;;;;28.60;18.48;;;3.50;99.90;;;;;;5054808;28;20045;-66
2023/01/09 03:34:03;;;;;;;29.35;17.23;;;3.50;99.90;;;;;;5054518;28;20062;-66
2023/01/09 03:36:29;;;;;;;28.75;18.70;;;3.60;99.90;;;;;;5054532;28;20500;-66
2023/01/09 03:38:55;;;;;;;27.80;17.38;;;3.60;99.90;;;;;;5054170;28;20477;-66
2023/01/09 03:41:20;;;;;;;26.45;17.25;;;3.70;99.90;;;;;;5055158;28;20412;-66
2023/01/09 03:43:47;;;;;;;26.77;16.88;;;3.80;99.90;;;;;;5054734;28;20032;-66
2023/01/09 03:46:13;;;;;;;24.23;16.05;;;3.90;99.90;;;;;;5054474;28;20017;-66
2023/01/09 03:48:39;;;;;;;24.25;15.00;;;3.90;99.90;;;;;;5054451;28;20025;-67
2023/01/09 03:51:05;;;;;;;25.30;15.43;;;4.00;99.90;;;;;;5053951;28;20029;-67
2023/01/09 03:53:31;;;;;;;26.90;16.88;;;4.10;99.90;;;;;;5054138;28;20036;-67
2023/01/09 03:55:57;;;;;;;26.95;16.80;;;4.10;99.90;;;;;;5054068;28;20036;-65
2023/01/09 03:58:24;;;;;;;23.60;15.63;;;4.10;99.90;;;;;;5054335;28;20033;-67
2023/01/09 04:00:51;;;;;;;24.20;15.90;;;4.10;99.90;;;;;;5053823;28;20545;-67
2023/01/09 04:03:20;;;;;;;23.08;15.68;;;4.10;99.90;;;;;;5054191;28;20029;-66
2023/01/09 04:05:47;;;;;;;25.27;15.65;;;4.20;99.90;;;;;;5054248;28;20021;-67
2023/01/09 04:08:13;;;;;;;22.92;14.88;;;4.20;99.90;;;;;;5053731;28;20030;-67
2023/01/09 04:10:39;;;;;;;22.70;14.05;;;4.20;99.90;;;;;;5053978;28;20079;-67
2023/01/09 04:13:05;;;;;;;23.38;15.10;;;4.30;99.90;;;;;;5053028;28;20074;-67
2023/01/09 04:15:31;;;;;;;23.13;14.55;;;4.30;99.90;;;;;;5053960;28;20028;-68
2023/01/09 04:17:56;;;;;;;24.27;14.55;;;4.40;99.90;;;;;;5052367;28;20025;-67
2023/01/09 04:20:22;;;;;;;21.02;14.00;;;4.40;99.90;;;;;;5054086;28;20081;-67
2023/01/09 04:22:47;;;;;;;21.48;13.68;;;4.50;99.90;;;;;;5053619;28;20032;-67
2023/01/09 04:25:13;;;;;;;22.00;14.02;;;4.60;99.90;;;;;;5052198;28;20028;-67
2023/01/09 04:27:39;;;;;;;21.38;13.40;;;4.60;99.90;;;;;;5053941;28;20099;-67
2023/01/09 04:30:05;;;;;;;18.98;12.43;;;4.70;99.90;;;;;;5053476;28;20024;-67
2023/01/09 04:32:31;;;;;;;21.90;12.52;;;4.80;99.90;;;;;;5053501;28;20532;-66
2023/01/09 04:34:56;;;;;;;20.73;12.48;;;4.90;99.90;;;;;;5053358;28;20033;-67
2023/01/09 04:37:23;;;;;;;19.02;12.27;;;5.00;99.90;;;;;;5053825;28;20029;-67
2023/01/09 04:39:50;;;;;;;20.48;11.82;;;5.20;99.90;;;;;;5053533;28;20166;-67
2023/01/09 04:42:15;;;;;;;18.73;12.30;;;5.30;99.90;;;;;;5053466;28;20021;-67
2023/01/09 04:44:41;;;;;;;22.10;13.13;;;5.30;99.90;;;;;;5053227;28;20035;-67
2023/01/09 04:47:07;;;;;;;20.50;12.73;;;5.30;99.90;;;;;;5053132;28;20040;-67
2023/01/09 04:49:33;;;;;;;19.17;11.05;;;5.30;99.90;;;;;;5053623;28;20028;-67
2023/01/09 04:51:58;;;;;;;20.35;12.35;;;5.40;99.90;;;;;;5052850;28;20104;-67
2023/01/09 04:54:24;;;;;;;17.63;11.70;;;5.40;99.90;;;;;;5052107;28;20401;-67
2023/01/09 04:56:50;;;;;;;21.50;14.02;;;5.50;99.90;;;;;;5053266;28;20455;-67
2023/01/09 04:59:15;;;;;;;19.55;12.60;;;5.50;99.90;;;;;;5052134;28;20385;-67
2023/01/09 05:01:41;;;;;;;19.98;12.55;;;5.50;99.90;;;;;;5053195;28;20520;-67
2023/01/09 05:04:07;;;;;;;17.60;11.60;;;5.50;99.90;;;;;;5052796;28;20491;-67
2023/01/09 05:06:33;;;;;;;22.05;12.20;;;5.50;99.90;;;;;;5052986;28;20056;-66
2023/01/09 05:09:00;;;;;;;20.10;11.48;;;5.50;99.90;;;;;;5052636;28;20060;-67
2023/01/09 05:11:26;;;;;;;19.27;11.73;;;5.60;99.90;;;;;;5052927;28;20113;-66
2023/01/09 05:13:52;;;;;;;16.30;11.23;;;5.60;99.90;;;;;;5052899;28;20116;-66
2023/01/09 05:16:18;;;;;;;17.50;11.13;;;5.60;99.90;;;;;;5052707;28;20039;-67
2023/01/09 05:18:43;;;;;;;17.63;11.80;;;5.70;99.90;;;;;;5053093;28;20044;-65
2023/01/09 05:21:10;;;;;;;16.23;10.73;;;5.70;99.90;;;;;;5052656;28;20029;-66
2023/01/09 05:23:35;;;;;;;15.02;9.57;;;5.70;99.90;;;;;;5052700;28;20033;-67
2023/01/09 05:26:03;;;;;;;14.05;9.88;;;5.80;99.90;;;;;;5052041;28;20028;-67
2023/01/09 05:28:29;;;;;;;14.45;9.57;;;5.90;99.90;;;;;;5052626;28;20036;-67
2023/01/09 05:30:55;;;;;;;15.38;9.57;;;5.90;99.90;;;;;;5052471;28;20032;-67
2023/01/09 05:33:21;;;;;;;11.25;8.18;;;5.90;99.90;;;;;;5052814;28;20377;-67
2023/01/09 05:35:47;;;;;;;13.68;8.13;;;5.90;99.90;;;;;;5052629;28;20024;-67
2023/01/09 05:38:13;;;;;;;13.68;7.50;;;6.00;99.90;;;;;;5052181;28;20032;-67
2023/01/09 05:40:39;;;;;;;10.68;6.75;;;6.10;99.90;;;;;;5052547;28;20045;-67
2023/01/09 05:43:04;;;;;;;8.93;6.07;;;6.10;99.90;;;;;;5052334;28;20032;-68
2023/01/09 05:45:30;;;;;;;10.93;6.60;;;6.20;99.90;;;;;;5052174;28;20033;-67
2023/01/09 05:47:56;;;;;;;13.18;6.00;;;6.30;99.90;;;;;;5052188;28;20021;-75
2023/01/09 05:50:22;;;;;;;8.43;5.47;;;6.30;99.90;;;;;;5052070;28;20495;-67
2023/01/09 05:52:47;;;;;;;7.75;5.60;;;6.40;99.90;;;;;;5052407;28;20100;-67
2023/01/09 05:55:13;;;;;;;6.03;4.68;;;6.50;99.90;;;;;;5051980;28;20105;-67
2023/01/09 05:57:39;;;;;;;5.90;4.38;;;6.50;99.90;;;;;;5052326;28;20029;-68
2023/01/09 06:00:05;;;;;;;8.30;4.50;;;6.60;99.90;;;;;;5050601;28;20446;-68
2023/01/09 06:02:30;;;;;;;7.57;4.25;;;6.70;99.90;;;;;;5052447;28;20032;-68
2023/01/09 06:04:56;;;;;;;5.93;4.10;;;6.80;99.90;;;;;;5052111;28;20389;-67
2023/01/09 06:07:22;;;;;;;7.30;3.70;;;6.90;99.90;;;;;;5051958;28;20025;-66
2023/01/09 06:09:47;;;;;;;5.50;3.72;;;7.00;99.90;;;;;;5054500;28;20068;-67
2023/01/09 06:12:13;;;;;;;4.45;3.22;;;7.00;99.90;;;;;;5055833;28;20462;-67
2023/01/09 06:14:39;;;;;;;4.38;3.45;;;7.10;99.90;;;;;;5056170;28;20048;-67
2023/01/09 06:17:04;;;;;;;7.82;3.28;;;7.20;99.90;;;;;;5054474;28;20074;-67
2023/01/09 06:19:30;;;;;;;5.82;3.13;;;7.30;99.90;;;;;;5053821;28;20127;-67
2023/01/09 06:21:56;;;;;;;6.90;3.60;;;7.30;99.90;;;;;;5053642;28;20025;-67
2023/01/09 06:24:21;;;;;;;4.50;3.08;;;7.30;99.90;;;;;;5055592;28;20024;-67
2023/01/09 06:26:47;;;;;;;3.30;2.50;;;7.40;99.90;;;;;;5055926;28;20028;-67
2023/01/09 06:29:12;;;;;;;3.13;2.63;;;7.50;99.90;;;;;;5055725;28;20033;-67
2023/01/09 06:31:38;;;;;;;4.85;2.65;;;7.60;99.90;;;;;;5056151;28;20511;-67
2023/01/09 06:34:04;;;;;;;4.97;2.88;;;7.70;99.90;;;;;;5055563;28;20086;-67
2023/01/09 06:36:29;;;;;;;4.95;2.65;;;7.70;99.90;;;;;;5056211;28;20029;-67
2023/01/09 06:38:55;;;;;;;4.97;3.15;;;7.80;99.90;;;;;;5056000;28;20100;-67
2023/01/09 06:41:21;;;;;;;4.57;2.45;;;7.90;99.90;;;;;;5055812;28;20036;-67
2023/01/09 06:43:46;;;;;;;5.03;2.80;;;7.90;99.90;;;;;;5055472;28;20040;-67
2023/01/09 06:46:13;;;;;;;4.55;2.83;;;8.00;99.90;;;;;;5055321;28;20075;-67
2023/01/09 06:48:39;;;;;;;4.15;2.45;;;8.00;99.90;;;;;;5055653;28;20199;-67
2023/01/09 06:51:04;;;;;;;3.85;2.72;;;8.10;99.90;;;;;;5055368;28;20021;-67
2023/01/09 06:53:30;;;;;;;3.53;2.65;;;8.10;99.90;;;;;;5055471;28;20032;-67
2023/01/09 06:55:56;;;;;;;5.03;2.70;;;8.20;99.90;;;;;;5054337;28;20036;-67
2023/01/09 06:58:21;;;;;;;3.92;2.50;;;8.20;99.90;;;;;;5054906;28;20036;-67
2023/01/09 07:00:48;;;;;;;4.72;2.70;;;8.20;99.90;;;;;;5054358;28;20100;-67
2023/01/09 07:03:18;;;;;;;4.90;2.88;;;8.20;99.90;;;;;;5054993;28;20033;-67
2023/01/09 07:05:45;;;;;;;3.03;2.57;;;8.20;99.90;;;;;;5055352;28;20055;-67
2023/01/09 07:08:11;;;;;;;4.70;2.75;;;8.30;99.90;;;;;;5054974;28;20028;-67
2023/01/09 07:10:36;;;;;;;6.75;3.08;;;8.40;99.90;;;;;;5055548;28;20450;-67
2023/01/09 07:13:02;;;;;;;7.20;2.90;;;8.40;99.90;;;;;;5054846;28;20032;-72
2023/01/09 07:15:27;;;;;;;3.47;2.55;;;8.40;99.90;;;;;;5054003;28;20033;-67
2023/01/09 07:17:53;;;;;;;4.28;2.72;;;8.40;99.90;;;;;;5055132;28;20021;-68
2023/01/09 07:20:19;;;;;;;4.63;3.20;;;8.40;99.90;;;;;;5053830;28;20075;-67
2023/01/09 07:22:45;;;;;;;5.82;3.10;;;8.50;99.90;;;;;;5055165;28;20438;-67
2023/01/09 07:25:11;;;;;;;6.75;3.20;;;8.50;99.90;;;;;;5054457;28;20033;-67
2023/01/09 07:27:37;;;;;;;5.90;2.63;;;8.50;99.90;;;;;;5054702;28;20032;-67
2023/01/09 07:30:05;;;;;;;4.88;2.65;;;8.50;99.90;;;;;;5054897;28;20111;-71
2023/01/09 07:32:31;;;;;;;4.90;3.03;;;8.60;99.90;;;;;;5054949;28;20174;-67
2023/01/09 07:34:57;;;;;;;5.05;2.75;;;8.60;99.90;;;;;;5054903;28;20032;-67
2023/01/09 07:37:23;;;;;;;3.78;2.45;;;8.60;99.90;;;;;;5054515;28;20469;-67
2023/01/09 07:39:48;;;;;;;3.75;2.10;;;8.60;99.90;;;;;;5054663;28;20087;-67
2023/01/09 07:42:15;;;;;;;5.47;2.67;;;8.60;99.90;;;;;;5054326;28;20025;-67
2023/01/09 07:44:40;;;;;;;5.05;2.42;;;8.60;99.90;;;;;;5054488;28;20033;-67
2023/01/09 07:47:06;;;;;;;4.20;2.65;;;8.60;99.90;;;;;;5053979;28;20138;-67
2023/01/09 07:49:32;;;;;;;4.35;2.50;;;8.60;99.90;;;;;;5054590;28;20025;-67
2023/01/09 07:51:57;;;;;;;6.03;2.70;;;8.60;99.90;;;;;;5054574;28;20458;-66
2023/01/09 07:54:23;;;;;;;4.57;2.83;;;8.60;99.90;;;;;;5054024;28;20102;-67
2023/01/09 07:56:49;;;;;;;5.38;2.97;;;8.60;99.90;;;;;;5054355;28;20468;-67
2023/01/09 07:59:14;;;;;;;10.88;6.13;;;8.60;99.90;;;;;;5054048;28;20025;-67
2023/01/09 08:01:40;;;;;;;12.57;8.15;;;8.70;99.90;;;;;;5054266;28;20461;-67
2023/01/09 08:04:06;;;;;;;17.52;11.50;;;8.60;99.90;;;;;;5053522;28;20032;-71
2023/01/09 08:06:31;;;;;;;21.33;11.63;;;8.30;99.90;;;;;;5054305;28;20065;-67
2023/01/09 08:08:57;;;;;;;18.25;12.35;;;8.00;99.90;;;;;;5053971;28;20028;-67
2023/01/09 08:11:24;;;;;;;19.83;13.57;;;7.60;99.90;;;;;;5053805;28;20105;-67
2023/01/09 08:13:50;;;;;;;19.77;13.40;;;7.40;99.90;;;;;;5054060;28;20033;-67
2023/01/09 08:16:16;;;;;;;18.98;13.40;;;7.20;99.90;;;;;;5053648;28;20446;-67
2023/01/09 08:18:42;;;;;;;18.70;12.55;;;6.90;99.90;;;;;;5052809;28;20063;-67
2023/01/09 08:21:09;;;;;;;18.45;13.38;;;6.90;99.90;;;;;;5053379;28;20113;-66
2023/01/09 08:23:35;;;;;;;21.02;13.60;;;6.80;99.90;;;;;;5053756;28;20039;-67
2023/01/09 08:26:01;;;;;;;25.10;15.20;;;6.60;99.90;;;;;;5053891;28;20103;-67
2023/01/09 08:28:27;;;;;;;24.95;14.43;;;6.60;99.90;;;;;;5052572;28;20337;-68
2023/01/09 08:30:52;;;;;;;20.25;14.35;;;6.60;99.90;;;;;;5053003;28;20048;-66
2023/01/09 08:33:18;;;;;;;22.70;14.38;;;6.50;99.90;;;;;;5051896;28;20033;-66
2023/01/09 08:35:44;;;;;;;20.88;13.30;;;6.50;99.90;;;;;;5053551;28;20052;-66
2023/01/09 08:38:10;;;;;;;21.50;12.98;;;6.50;99.90;;;;;;5053216;28;20100;-66
2023/01/09 08:40:36;;;;;;;21.42;13.65;;;6.50;99.90;;;;;;5053580;28;20128;-67
2023/01/09 08:48:31;;;;;;;21.33;14.30;;;6.40;99.90;;;;;;5052926;28;20032;-66
2023/01/09 08:50:56;;;;;;;18.20;12.82;;;6.40;99.90;;;;;;5053474;28;20029;-66
2023/01/09 08:53:22;;;;;;;18.27;13.00;;;6.40;99.90;;;;;;5052958;28;20064;-68
2023/01/09 08:55:48;;;;;;;19.88;13.32;;;6.40;99.90;;;;;;5053041;28;20475;-66
2023/01/09 08:58:14;;;;;;;22.08;13.27;;;6.40;99.90;;;;;;5052916;28;20060;-67
2023/01/09 09:00:40;;;;;;;17.65;12.73;;;6.50;99.90;;;;;;5053511;28;20075;-67
2023/01/09 09:03:05;;;;;;;20.95;13.43;;;6.50;99.90;;;;;;5053121;28;20453;-67
2023/01/09 09:05:32;;;;;;;17.50;12.75;;;6.50;99.90;;;;;;5053121;28;20107;-67
2023/01/09 09:07:58;;;;;;;19.58;12.60;;;6.50;99.90;;;;;;5053209;28;20079;-67
2023/01/09 09:10:26;;;;;;;19.05;12.43;;;6.50;99.90;;;;;;5052638;28;20377;-67
2023/01/09 09:12:54;;;;;;;18.20;12.77;;;6.50;99.90;;;;;;5053095;28;20428;-67
2023/01/09 09:15:25;;;;;;;16.98;11.73;;;6.50;99.90;;;;;;5052444;28;20079;-67
2023/01/09 09:17:53;;;;;;;18.23;11.43;;;6.50;99.90;;;;;;5052996;28;20516;-67
2023/01/09 09:20:21;;;;;;;16.52;11.73;;;6.50;99.90;;;;;;5052404;28;20040;-67
2023/01/09 09:22:48;;;;;;;19.30;11.55;;;6.50;99.90;;;;;;5052481;28;20493;-66
2023/01/09 09:25:16;;;;;;;17.00;11.02;;;6.50;99.90;;;;;;5052506;28;20033;-68
2023/01/09 09:27:42;;;;;;;16.00;10.80;;;6.60;99.90;;;;;;5052683;28;20057;-66
2023/01/09 09:30:11;;;;;;;18.65;12.13;;;6.50;99.90;;;;;;5052746;28;20480;-67
2023/01/09 09:32:38;;;;;;;17.10;12.00;;;6.50;99.90;;;;;;5052811;28;20029;-66
2023/01/09 09:35:04;;;;;;;16.45;11.05;;;6.50;99.90;;;;;;5052649;28;20047;-67
2023/01/09 09:37:30;;;;;;;16.60;10.57;;;6.50;99.90;;;;;;5052124;28;20037;-66
2023/01/09 09:39:55;;;;;;;13.40;9.63;;;6.50;99.90;;;;;;5052203;28;20045;-66
2023/01/09 09:45:57;;;;;;;11.68;7.20;;;6.60;99.90;;;;;;5010627;28;20037;-66
2023/01/09 09:48:36;;;;;;;10.85;6.50;;;6.70;99.90;;;;;;5052259;28;20025;-66
2023/01/09 09:51:02;;;;;;;9.23;6.05;;;6.90;99.90;;;;;;5052554;28;20029;-66
2023/01/09 09:53:47;;;;;;;7.32;5.03;;;6.90;99.90;;;;;;5051797;28;20021;-67
2023/01/09 09:56:16;;;;;;;8.70;5.43;;;7.00;99.90;;;;;;5052563;28;20071;-66
2023/01/09 09:58:45;;;;;;;6.40;4.30;;;7.10;99.90;;;;;;5052566;28;20025;-66
2023/01/09 10:01:15;;;;;;;7.28;4.35;;;7.20;99.90;;;;;;5052381;28;20032;-67
2023/01/09 10:03:54;;;;;;;6.57;4.25;;;7.30;99.90;;;;;;5052255;28;20346;-67
2023/01/09 10:06:50;;;;;;;4.68;3.30;;;7.30;99.90;;;;;;5052118;28;20044;-68
2023/01/09 10:09:36;;;;;;;7.60;3.72;;;7.30;99.90;;;;;;5051410;28;20041;-67
2023/01/09 10:12:30;;;;;;;6.40;3.25;;;7.40;99.90;;;;;;5052168;28;20401;-66
2023/01/09 10:15:05;;;;;;;5.00;3.38;;;7.40;99.90;;;;;;5052004;28;20044;-67
2023/01/09 10:17:37;;;;;;;5.80;3.65;;;7.40;99.90;;;;;;5052045;28;20044;-68
2023/01/09 10:20:26;;;;;;;4.57;2.92;;;7.40;99.90;;;;;;5051897;28;20025;-66
2023/01/09 10:23:30;;;;;;;4.50;3.00;;;7.40;99.90;;;;;;5051923;28;20470;-66
2023/01/09 10:26:04;;;;;;;5.05;2.78;;;7.40;99.90;;;;;;5052361;28;20441;-67
2023/01/09 10:28:57;;;;;;;5.07;2.28;;;7.40;99.90;;;;;;5051859;28;20025;-67
2023/01/09 10:31:54;;;;;;;3.03;2.10;;;7.40;99.90;;;;;;5051607;28;20032;-65
2023/01/09 10:34:41;;;;;;;3.20;2.15;;;7.40;99.90;;;;;;5051753;28;20097;-67
2023/01/09 10:37:16;;;;;;;5.43;1.80;;;7.40;99.90;;;;;;5051909;28;20060;-67
2023/01/09 10:39:57;;;;;;;2.25;1.40;;;7.50;99.90;;;;;;5051759;28;20592;-65
2023/01/09 10:42:30;;;;;;;2.38;1.40;;;7.50;99.90;;;;;;5052144;28;20052;-68
2023/01/09 10:45:32;;;;;;;2.00;1.30;;;7.50;99.90;;;;;;5052004;28;20043;-67
2023/01/09 10:48:10;;;;;;;1.48;1.08;;;7.50;99.90;;;;;;5045257;28;20037;-67
2023/01/09 10:50:40;;;;;;;2.45;1.42;;;7.50;99.90;;;;;;5051733;28;20036;-67
2023/01/09 10:53:20;;;;;;;3.28;1.33;;;7.50;99.90;;;;;;5051820;28;20464;-67
2023/01/09 10:55:50;;;;;;;1.30;0.93;;;7.50;99.90;;;;;;5052785;28;20041;-67
2023/01/09 10:58:21;;;;;;;1.07;0.70;;;7.60;99.90;;;;;;5055540;28;20385;-66
2023/01/09 11:00:49;;;;;;;2.72;1.00;;;7.60;99.90;;;;;;5055641;28;20021;-68
2023/01/09 11:03:20;;;;;;;2.72;1.00;;;7.60;99.90;;;;;;5055502;28;20104;-68
2023/01/09 11:05:57;;;;;;;2.08;1.15;;;7.60;99.90;;;;;;5054352;28;20151;-67
2023/01/09 11:08:39;;;;;;;1.05;0.75;;;7.60;99.90;;;;;;5055048;28;20029;-68
2023/01/09 11:11:05;;;;;;;1.42;0.80;;;7.60;99.90;;;;;;5055514;28;20059;-67
2023/01/09 11:13:33;;;;;;;0.93;0.70;;;7.70;99.90;;;;;;5054664;28;20032;-66
2023/01/09 11:15:59;;;;;;;3.55;0.80;;;7.70;99.90;;;;;;5055236;28;20021;-67
2023/01/09 11:18:25;;;;;;;1.73;0.80;;;7.70;99.90;;;;;;5054407;28;20028;-68
2023/01/09 11:20:51;;;;;;;1.80;0.90;;;7.70;99.90;;;;;;5055205;28;20032;-67
2023/01/09 11:23:26;;;;;;;1.30;0.70;;;7.80;99.90;;;;;;5055145;28;20048;-67
2023/01/09 11:25:54;;;;;;;2.80;1.15;;;7.80;99.90;;;;;;5054696;28;20397;-67
2023/01/09 11:28:19;;;;;;;1.48;0.70;;;7.80;99.90;;;;;;5054950;28;20033;-67
2023/01/09 11:31:11;;;;;;;7.20;0.80;;;7.80;99.90;;;;;;5054827;28;20142;-66
2023/01/09 11:33:46;;;;;;;1.85;0.98;;;7.90;99.90;;;;;;5052320;28;20107;-67
2023/01/09 11:36:14;;;;;;;1.50;0.82;;;7.90;99.90;;;;;;5054645;28;20035;-66
2023/01/09 11:38:51;;;;;;;1.50;0.60;;;8.00;99.90;;;;;;5054455;28;20418;-66
2023/01/09 11:41:23;;;;;;;1.80;0.60;;;8.00;99.90;;;;;;5054926;28;20462;-67
2023/01/09 11:43:52;;;;;;;2.20;0.70;;;7.90;99.90;;;;;;5054697;28;20393;-66
2023/01/09 11:46:42;;;;;;;0.40;0.40;;;7.90;99.90;;;;;;5054553;28;20508;-67
2023/01/09 11:49:14;;;;;;;1.27;0.95;;;8.00;99.90;;;;;;5054619;28;20025;-67
2023/01/09 11:51:41;;;;;;;1.23;0.70;;;8.00;99.90;;;;;;5054342;28;20040;-67
2023/01/09 11:54:13;;;;;;;1.40;0.55;;;8.00;99.90;;;;;;5054460;28;20025;-68
2023/01/09 11:56:39;;;;;;;1.48;0.68;;;7.90;99.90;;;;;;5053825;28;20033;-66
2023/01/09 11:59:10;;;;;;;1.85;0.60;;;8.00;99.90;;;;;;5054418;28;20025;-67
2023/01/09 12:02:00;;;;;;;2.40;0.93;;;7.90;99.90;;;;;;5053924;28;20037;-67
2023/01/09 12:04:34;;;;;;;1.52;0.68;;;8.00;99.90;;;;;;5053620;28;20060;-68
2023/01/09 12:07:21;;;;;;;0.88;0.63;;;8.00;99.90;;;;;;5053993;28;20453;-67
2023/01/09 12:10:05;;;;;;;1.90;0.52;;;8.00;99.90;;;;;;5054129;28;20028;-67
2023/01/09 12:12:40;;;;;;;1.10;0.70;;;8.00;99.90;;;;;;5053632;28;20390;-66
2023/01/09 12:15:40;;;;;;;0.95;0.60;;;8.00;99.90;;;;;;5054260;28;20082;-66
2023/01/09 12:18:33;;;;;;;2.00;0.70;;;8.00;99.90;;;;;;5053770;28;20107;-66
2023/01/09 12:21:17;;;;;;;4.32;0.73;;;8.00;99.90;;;;;;5054078;28;20426;-67
2023/01/09 12:23:52;;;;;;;1.20;0.77;;;8.00;99.90;;;;;;5052313;28;20035;-67
2023/01/09 12:26:31;;;;;;;0.60;0.60;;;8.10;99.90;;;;;;5053704;28;20029;-66
2023/01/09 12:29:17;;;;;;;3.22;0.82;;;8.10;99.90;;;;;;5053865;28;20079;-67
2023/01/09 12:31:43;;;;;;;2.13;0.75;;;8.10;99.90;;;;;;5053701;28;20033;-68
2023/01/09 12:34:26;;;;;;;1.48;0.75;;;8.10;99.90;;;;;;5053680;28;20117;-66
2023/01/09 12:37:00;;;;;;;0.90;0.73;;;8.20;99.90;;;;;;5053742;28;20053;-67
2023/01/09 12:39:43;;;;;;;0.68;0.60;;;8.20;99.90;;;;;;5052657;28;20559;-66
2023/01/09 12:42:11;;;;;;;1.52;0.88;;;8.20;99.90;;;;;;5051602;28;20082;-67
2023/01/09 12:45:11;;;;;;;2.55;0.57;;;8.20;99.90;;;;;;5053225;28;20044;-66
2023/01/09 12:47:47;;;;;;;2.08;0.98;;;8.30;99.90;;;;;;5052999;28;20067;-66
2023/01/09 12:50:27;;;;;;;1.40;0.70;;;8.30;99.90;;;;;;5053566;28;20035;-66
2023/01/09 12:53:05;;;;;;;1.83;0.90;;;8.30;99.90;;;;;;5053430;28;20021;-66
2023/01/09 12:55:34;;;;;;;1.00;0.82;;;8.30;99.90;;;;;;5052915;28;20541;-66
2023/01/09 12:58:11;;;;;;;0.63;0.50;;;8.40;99.90;;;;;;5053114;28;20470;-65
2023/01/09 13:00:40;;;;;;;1.02;0.60;;;8.40;99.90;;;;;;5052820;28;20021;-66
2023/01/09 13:03:30;;;;;;;1.55;0.82;;;8.40;99.90;;;;;;5053162;28;20033;-66
2023/01/09 13:05:56;;;;;;;3.70;1.27;;;8.40;99.90;;;;;;5052910;28;20032;-66
2023/01/09 13:08:29;;;;;;;1.23;1.00;;;8.30;99.90;;;;;;5053115;28;20025;-66
2023/01/09 13:11:00;;;;;;;1.30;1.10;;;8.30;99.90;;;;;;5053109;28;20079;-66
2023/01/09 13:13:35;;;;;;;1.67;1.08;;;8.30;99.90;;;;;;5051849;28;20070;-66